Time;durP1;ratioP1;P1;durP2;ratioP2;P2;SDS_P1;SDS_P2;PMS_P1;PMS_P2;Temp;Humidity;BMP_temperature;BMP_pressure;BME280_temperature;BME280_humidity;BME280_pressure;Samples;Min_cycle;Max_cycle;Signal;HPM_P1;HPM_P2
2023/03/29 00:02:30;;;;;;;;;;;;;;;22.34;24.20;97804.00;5035599;28;890;-75
2023/03/29 00:04:56;;;;;;;;;;;;;;;22.01;24.58;97811.09;5002049;28;1327;-75
2023/03/29 00:07:22;;;;;;;;;;;;;;;22.00;24.37;97803.84;5017792;28;919;-75
2023/03/29 00:09:48;;;;;;;;;;;;;;;21.94;24.57;97811.31;5001302;28;1957;-75
2023/03/29 00:12:13;;;;;;;;;;;;;;;21.91;24.52;97806.56;5017559;28;910;-75
2023/03/29 00:14:39;;;;;;;;;;;;;;;21.93;24.50;97810.53;5017731;28;987;-76
2023/03/29 00:17:05;;;;;;;;;;;;;;;21.78;24.56;97810.19;5017723;28;979;-75
2023/03/29 00:19:34;;;;;;;;;;;;;;;21.83;24.48;97806.78;5018541;28;1092;-75
2023/03/29 00:22:00;;;;;;;;;;;;;;;21.84;24.43;97808.38;5005757;28;894;-75
2023/03/29 00:24:26;;;;;;;;;;;;;;;21.68;25.03;97816.16;5005059;28;1103;-75
2023/03/29 00:26:51;;;;;;;;;;;;;;;21.67;24.70;97806.88;5038963;28;958;-76
2023/03/29 00:29:17;;;;;;;;;;;;;;;21.84;24.42;97811.19;5021801;28;1907;-75
2023/03/29 00:31:51;;;;;;;;;;;;;;;21.79;24.34;97811.75;5021563;28;897;-76
2023/03/29 00:34:17;;;;;;;;;;;;;;;21.96;24.58;97809.63;5004943;28;1140;-75
2023/03/29 00:36:42;;;;;;;;;;;;;;;21.84;24.39;97814.03;5021152;28;955;-75
2023/03/29 00:39:09;;;;;;;;;;;;;;;22.03;24.22;97819.94;5038973;28;917;-76
2023/03/29 00:41:34;;;;;;;;;;;;;;;22.20;24.02;97818.63;5004992;28;1097;-75
2023/03/29 00:44:01;;;;;;;;;;;;;;;22.03;24.28;97819.94;5005095;28;1106;-75
2023/03/29 00:46:28;;;;;;;;;;;;;;;21.85;24.53;97821.28;4981017;28;1642;-75
2023/03/29 00:48:55;;;;;;;;;;;;;;;21.97;24.22;97811.22;4948776;28;1903;-75
2023/03/29 00:51:21;;;;;;;;;;;;;;;21.85;24.54;97821.28;4980717;28;1189;-75
2023/03/29 00:53:48;;;;;;;;;;;;;;;21.71;24.80;97818.06;4977346;28;990;-75
2023/03/29 00:56:23;;;;;;;;;;;;;;;21.76;24.48;97817.53;4977417;28;939;-75
2023/03/29 00:58:51;;;;;;;;;;;;;;;21.81;24.70;97816.97;4961579;28;1013;-75
2023/03/29 01:01:18;;;;;;;;;;;;;;;21.78;24.34;97826.38;4961104;28;929;-75
2023/03/29 01:03:49;;;;;;;;;;;;;;;21.92;24.32;97833.66;4977273;28;1338;-76
2023/03/29 01:06:15;;;;;;;;;;;;;;;21.69;24.32;97832.69;4957767;29;1177;-75
2023/03/29 01:08:42;;;;;;;;;;;;;;;21.51;24.55;97835.28;4926143;29;1981;-75
2023/03/29 01:11:08;;;;;;;;;;;;;;;21.93;24.04;97838.88;4926302;29;1203;-75
2023/03/29 01:13:45;;;;;;;;;;;;;;;22.11;23.83;97832.66;4957867;29;927;-75
2023/03/29 01:16:11;;;;;;;;;;;;;;;21.79;24.10;97840.09;4957751;29;1131;-75
2023/03/29 01:18:37;;;;;;;;;;;;;;;21.82;24.22;97842.03;4944826;28;1264;-75
2023/03/29 01:21:13;;;;;;;;;;;;;;;21.57;24.40;97839.91;4944884;28;1125;-75
2023/03/29 01:23:57;;;;;;;;;;;;;;;22.12;23.97;97839.91;4944865;28;1464;-75
2023/03/29 01:26:30;;;;;;;;;;;;;;;22.18;23.88;97832.47;4976567;28;974;-76
2023/03/29 01:28:58;;;;;;;;;;;;;;;21.84;24.05;97845.19;4929019;28;1903;-75
2023/03/29 01:31:31;;;;;;;;;;;;;;;21.75;24.14;97844.25;4906189;29;1102;-75
2023/03/29 01:34:24;;;;;;;;;;;;;;;21.67;24.37;97838.03;4906774;29;1124;-76
2023/03/29 01:36:59;;;;;;;;;;;;;;;21.78;24.28;97838.50;4948440;28;1164;-76
2023/03/29 01:39:25;;;;;;;;;;;;;;;21.73;24.00;97832.59;4976863;28;1039;-75
2023/03/29 01:42:19;;;;;;;;;;;;;;;21.96;23.82;97842.81;4928808;28;1238;-76
2023/03/29 01:44:46;;;;;;;;;;;;;;;21.70;23.93;97841.97;4881355;29;1057;-75
2023/03/29 01:47:16;;;;;;;;;;;;;;;21.75;24.17;97845.06;4862640;29;1487;-75
2023/03/29 01:49:48;;;;;;;;;;;;;;;21.64;24.35;97843.78;4847375;29;1981;-75
2023/03/29 01:52:14;;;;;;;;;;;;;;;21.74;24.12;97843.47;4844088;29;980;-75
2023/03/29 01:54:40;;;;;;;;;;;;;;;21.89;23.60;97843.03;4828862;29;1663;-75
2023/03/29 01:57:06;;;;;;;;;;;;;;;21.53;24.17;97839.22;4828832;29;1166;-75
2023/03/29 01:59:33;;;;;;;;;;;;;;;21.51;23.92;97844.56;4828706;29;1242;-75
2023/03/29 02:01:59;;;;;;;;;;;;;;;21.70;23.75;97839.94;4834849;29;1010;-75
2023/03/29 02:04:30;;;;;;;;;;;;;;;21.84;23.80;97848.03;4859844;29;1161;-75
2023/03/29 02:06:56;;;;;;;;;;;;;;;21.98;23.20;97840.34;4865547;29;1127;-75
2023/03/29 02:09:22;;;;;;;;;;;;;;;21.95;23.32;97846.91;4881025;29;1911;-75
2023/03/29 02:11:48;;;;;;;;;;;;;;;22.26;22.79;97850.03;4865472;29;1175;-76
2023/03/29 02:14:14;;;;;;;;;;;;;;;22.20;23.18;97849.78;4880712;29;1022;-75
2023/03/29 02:16:39;;;;;;;;;;;;;;;22.18;23.10;97849.47;4881105;29;1016;-75
2023/03/29 02:19:06;;;;;;;;;;;;;;;21.83;23.20;97843.59;4880642;29;1140;-75
2023/03/29 02:21:35;;;;;;;;;;;;;;;21.83;23.22;97846.44;4906405;29;1213;-75
2023/03/29 02:24:02;;;;;;;;;;;;;;;21.88;23.07;97853.59;4956604;28;1626;-75
2023/03/29 02:26:28;;;;;;;;;;;;;;;21.77;23.22;97858.78;4996343;28;1146;-75
2023/03/29 02:28:54;;;;;;;;;;;;;;;22.03;23.13;97865.28;5002926;28;1910;-75
2023/03/29 02:31:23;;;;;;;;;;;;;;;21.88;23.12;97867.75;5002880;28;1228;-75
2023/03/29 02:33:51;;;;;;;;;;;;;;;22.33;22.65;97869.66;5002835;28;1234;-75
2023/03/29 02:36:18;;;;;;;;;;;;;;;22.57;22.04;97864.41;5003171;28;1092;-76
2023/03/29 02:38:44;;;;;;;;;;;;;;;22.34;22.20;97862.72;4975685;28;1266;-75
2023/03/29 02:41:09;;;;;;;;;;;;;;;21.94;22.77;97857.44;4959566;28;1150;-75
2023/03/29 02:43:35;;;;;;;;;;;;;;;21.84;23.24;97864.22;4942600;28;1098;-75
2023/03/29 02:46:01;;;;;;;;;;;;;;;21.88;23.01;97864.13;4943317;28;1125;-75
2023/03/29 02:48:26;;;;;;;;;;;;;;;22.17;22.58;97876.19;4959024;28;1009;-75
2023/03/29 02:50:52;;;;;;;;;;;;;;;22.26;22.37;97873.47;4958992;28;1899;-76
2023/03/29 02:53:19;;;;;;;;;;;;;;;21.95;22.58;97880.91;4959331;28;987;-75
2023/03/29 02:55:47;;;;;;;;;;;;;;;21.87;22.67;97885.22;4943324;28;1318;-75
2023/03/29 02:58:14;;;;;;;;;;;;;;;21.70;22.97;97882.41;4975141;28;1073;-75
2023/03/29 03:00:44;;;;;;;;;;;;;;;21.98;22.51;97894.19;4952571;29;1337;-76
2023/03/29 03:03:10;;;;;;;;;;;;;;;22.44;22.10;97900.50;4936616;29;1181;-75
2023/03/29 03:05:37;;;;;;;;;;;;;;;22.23;22.20;97908.41;4936833;29;997;-75
2023/03/29 03:08:06;;;;;;;;;;;;;;;21.94;22.76;97907.66;4935997;29;1444;-75
2023/03/29 03:10:32;;;;;;;;;;;;;;;22.04;22.65;97903.69;4984485;28;1910;-75
2023/03/29 03:12:58;;;;;;;;;;;;;;;21.92;22.76;97910.94;4958592;28;1475;-75
2023/03/29 03:15:25;;;;;;;;;;;;;;;21.96;22.45;97924.97;4958676;28;1200;-75
2023/03/29 03:17:50;;;;;;;;;;;;;;;21.74;23.04;97928.44;4958679;28;1319;-75
2023/03/29 03:20:16;;;;;;;;;;;;;;;21.76;22.84;97928.78;4917206;29;1249;-75
2023/03/29 03:22:44;;;;;;;;;;;;;;;21.74;22.78;97925.59;4901733;29;977;-75
2023/03/29 03:25:10;;;;;;;;;;;;;;;21.92;22.67;97927.16;4898301;29;1012;-75
2023/03/29 03:27:36;;;;;;;;;;;;;;;22.32;22.09;97933.22;4867503;29;1638;-75
2023/03/29 03:30:04;;;;;;;;;;;;;;;21.97;22.47;97929.41;4867072;29;1914;-75
2023/03/29 03:33:08;;;;;;;;;;;;;;;21.79;23.08;97933.53;4887723;29;935;-75
2023/03/29 03:35:55;;;;;;;;;;;;;;;21.89;22.99;97934.47;4898071;29;947;-75
2023/03/29 03:38:22;;;;;;;;;;;;;;;21.81;22.79;97928.25;4867585;29;1263;-75
2023/03/29 03:40:54;;;;;;;;;;;;;;;21.80;22.75;97931.50;4868231;29;1318;-75
2023/03/29 03:43:20;;;;;;;;;;;;;;;21.80;22.90;97926.63;4891777;29;1165;-75
2023/03/29 03:45:47;;;;;;;;;;;;;;;21.82;22.95;97929.81;4920319;29;1379;-75
2023/03/29 03:48:18;;;;;;;;;;;;;;;21.98;22.77;97931.00;4919953;29;1117;-75
2023/03/29 03:50:48;;;;;;;;;;;;;;;21.70;23.10;97935.44;4944714;28;1902;-75
2023/03/29 03:53:14;;;;;;;;;;;;;;;21.96;22.49;97939.94;4957975;28;1141;-75
2023/03/29 03:56:08;;;;;;;;;;;;;;;21.77;22.74;97933.22;4942235;29;1001;-75
2023/03/29 03:58:43;;;;;;;;;;;;;;;21.90;22.70;97929.59;4910524;29;1174;-75
2023/03/29 04:01:09;;;;;;;;;;;;;;;21.89;22.79;97939.34;4938855;29;1570;-75
2023/03/29 04:03:40;;;;;;;;;;;;;;;22.02;22.46;97937.34;4927884;28;1069;-75
2023/03/29 04:06:09;;;;;;;;;;;;;;;21.78;22.99;97934.78;4942692;28;1107;-75
2023/03/29 04:08:55;;;;;;;;;;;;;;;21.72;22.82;97941.47;4916430;29;1911;-75
2023/03/29 04:11:37;;;;;;;;;;;;;;;21.66;23.06;97938.38;4900901;29;1181;-75
2023/03/29 04:14:03;;;;;;;;;;;;;;;22.22;22.13;97943.66;4866539;29;1242;-76
2023/03/29 04:16:58;;;;;;;;;;;;;;;22.40;21.87;97948.00;4860537;29;1033;-75
2023/03/29 04:19:46;;;;;;;;;;;;;;;21.77;23.00;97944.53;4860150;29;1018;-75
2023/03/29 04:22:12;;;;;;;;;;;;;;;21.81;22.53;97948.06;4860331;29;1260;-75
2023/03/29 04:24:38;;;;;;;;;;;;;;;21.82;22.60;97954.53;4860805;29;1036;-74
2023/03/29 04:27:26;;;;;;;;;;;;;;;21.87;22.55;97956.03;4860174;29;1057;-76
2023/03/29 04:29:51;;;;;;;;;;;;;;;21.61;22.91;97952.28;4860418;29;1903;-75
2023/03/29 04:32:25;;;;;;;;;;;;;;;21.61;23.07;97958.75;4865857;29;1092;-75
2023/03/29 04:34:56;;;;;;;;;;;;;;;21.62;22.95;97970.88;4863683;29;1240;-75
2023/03/29 04:37:22;;;;;;;;;;;;;;;21.54;22.89;97970.25;4863751;29;1047;-76
2023/03/29 04:39:51;;;;;;;;;;;;;;;21.58;22.95;97973.78;4863840;29;1154;-75
2023/03/29 04:42:18;;;;;;;;;;;;;;;22.04;22.33;97980.19;4848205;29;1554;-74
2023/03/29 04:44:46;;;;;;;;;;;;;;;22.04;22.20;97977.38;4878821;29;1166;-74
2023/03/29 04:47:17;;;;;;;;;;;;;;;22.42;21.52;97982.34;4882729;29;1424;-75
2023/03/29 04:49:42;;;;;;;;;;;;;;;21.93;22.29;97979.72;4881860;29;1903;-75
2023/03/29 04:52:18;;;;;;;;;;;;;;;21.94;22.53;97986.97;4869389;29;1493;-75
2023/03/29 04:54:43;;;;;;;;;;;;;;;21.89;22.39;97993.97;4916318;29;1224;-75
2023/03/29 04:57:35;;;;;;;;;;;;;;;22.21;21.87;97998.75;4928660;29;1149;-75
2023/03/29 05:00:14;;;;;;;;;;;;;;;22.24;22.03;98000.69;4935421;29;1183;-75
2023/03/29 05:03:03;;;;;;;;;;;;;;;22.02;22.36;97994.00;4919175;29;1319;-75
2023/03/29 05:05:32;;;;;;;;;;;;;;;22.06;21.98;97991.88;4935260;29;1344;-75
2023/03/29 05:08:00;;;;;;;;;;;;;;;21.94;22.26;98003.97;4938614;29;969;-75
2023/03/29 05:10:35;;;;;;;;;;;;;;;22.19;22.03;98004.09;4938665;29;1983;-76
2023/03/29 05:13:02;;;;;;;;;;;;;;;22.40;21.56;98004.69;4922752;29;1086;-75
2023/03/29 05:15:30;;;;;;;;;;;;;;;22.25;21.66;98007.16;4903494;29;1150;-75
2023/03/29 05:17:57;;;;;;;;;;;;;;;21.91;22.40;98005.63;4919607;29;1142;-75
2023/03/29 05:20:23;;;;;;;;;;;;;;;21.69;22.45;98005.44;4919391;29;1624;-75
2023/03/29 05:22:49;;;;;;;;;;;;;;;21.82;22.33;98009.13;4919715;29;1444;-75
2023/03/29 05:25:33;;;;;;;;;;;;;;;22.21;22.12;98009.28;4927575;29;878;-76
2023/03/29 05:28:00;;;;;;;;;;;;;;;22.35;21.73;98026.69;4932376;28;1484;-75
2023/03/29 05:30:26;;;;;;;;;;;;;;;21.67;22.67;98036.25;4960620;28;1898;-75
2023/03/29 05:33:13;;;;;;;;;;;;;;;21.94;22.22;98027.41;4947497;28;1206;-75
2023/03/29 05:35:39;;;;;;;;;;;;;;;21.87;22.41;98032.50;4944862;28;897;-75
2023/03/29 05:38:07;;;;;;;;;;;;;;;22.02;22.08;98039.34;4944978;28;1102;-75
2023/03/29 05:40:34;;;;;;;;;;;;;;;22.03;22.19;98038.13;4960578;28;1308;-75
2023/03/29 05:43:09;;;;;;;;;;;;;;;21.65;22.52;98038.72;4946945;28;940;-75
2023/03/29 05:45:34;;;;;;;;;;;;;;;21.63;22.54;98041.19;4944438;28;1208;-75
2023/03/29 05:48:00;;;;;;;;;;;;;;;21.74;22.37;98041.72;4944209;28;1125;-75
2023/03/29 05:50:26;;;;;;;;;;;;;;;22.09;21.99;98047.66;4976599;28;1902;-75
2023/03/29 05:52:53;;;;;;;;;;;;;;;22.34;21.89;98044.94;4970675;28;1133;-75
2023/03/29 05:55:19;;;;;;;;;;;;;;;22.00;22.02;98042.63;4957029;29;1223;-75
2023/03/29 05:57:45;;;;;;;;;;;;;;;22.22;21.75;98051.34;4966356;28;1578;-75
2023/03/29 06:00:30;;;;;;;;;;;;;;;21.65;22.34;98044.38;4986461;28;1566;-75
2023/03/29 06:03:17;;;;;;;;;;;;;;;22.25;21.68;98041.97;4993643;28;1259;-75
2023/03/29 06:05:45;;;;;;;;;;;;;;;22.24;21.89;98054.53;4963658;28;1249;-75
2023/03/29 06:08:11;;;;;;;;;;;;;;;22.25;21.56;98058.97;4963310;28;1208;-75
2023/03/29 06:11:00;;;;;;;;;;;;;;;21.95;21.99;98056.53;4924465;29;1907;-75
2023/03/29 06:13:46;;;;;;;;;;;;;;;21.98;22.05;98056.44;4899427;29;1122;-75
2023/03/29 06:16:12;;;;;;;;;;;;;;;22.03;21.66;98075.75;4899370;29;1017;-75
2023/03/29 06:18:39;;;;;;;;;;;;;;;21.99;21.76;98074.25;4879960;29;1084;-75
2023/03/29 06:21:05;;;;;;;;;;;;;;;22.06;21.86;98062.72;4880742;29;1192;-75
2023/03/29 06:23:30;;;;;;;;;;;;;;;22.05;21.61;98069.63;4843678;29;1498;-75
2023/03/29 06:25:56;;;;;;;;;;;;;;;21.72;22.06;98072.53;4834623;29;1174;-75
2023/03/29 06:28:23;;;;;;;;;;;;;;;21.78;22.21;98070.75;4862118;29;1139;-75
2023/03/29 06:30:49;;;;;;;;;;;;;;;22.17;21.42;98068.09;4862049;29;1915;-74
2023/03/29 06:33:15;;;;;;;;;;;;;;;22.50;21.18;98074.47;4846605;29;1172;-75
2023/03/29 06:36:03;;;;;;;;;;;;;;;21.85;21.79;98075.41;4861942;29;1253;-75
2023/03/29 06:38:29;;;;;;;;;;;;;;;22.02;21.74;98073.34;4880277;29;1066;-75
2023/03/29 06:41:14;;;;;;;;;;;;;;;21.72;22.13;98066.84;4880466;29;1200;-75
2023/03/29 06:43:58;;;;;;;;;;;;;;;21.99;21.91;98082.75;4880244;29;1022;-74
2023/03/29 06:46:31;;;;;;;;;;;;;;;21.97;21.63;98088.06;4864766;29;1313;-75
2023/03/29 06:49:00;;;;;;;;;;;;;;;22.19;21.43;98083.44;4881696;29;1903;-75
2023/03/29 06:51:33;;;;;;;;;;;;;;;22.06;21.69;98091.03;4912468;29;1094;-75
2023/03/29 06:53:59;;;;;;;;;;;;;;;22.03;21.76;98083.44;4901976;29;1223;-75
2023/03/29 06:56:25;;;;;;;;;;;;;;;21.93;21.73;98093.03;4954774;28;1535;-75
2023/03/29 06:58:57;;;;;;;;;;;;;;;22.22;21.61;98093.88;4944095;28;1651;-75
2023/03/29 07:01:33;;;;;;;;;;;;;;;21.88;22.01;98102.06;4973228;28;1704;-75
2023/03/29 07:04:07;;;;;;;;;;;;;;;21.88;21.78;98097.19;4963321;28;1229;-75
2023/03/29 07:06:47;;;;;;;;;;;;;;;21.77;21.87;98103.13;4963617;28;1224;-75
2023/03/29 07:09:18;;;;;;;;;;;;;;;21.95;21.77;98113.19;4940351;29;1903;-75
2023/03/29 07:12:04;;;;;;;;;;;;;;;22.00;21.83;98115.50;4898338;29;1264;-75
2023/03/29 07:14:30;;;;;;;;;;;;;;;21.98;21.96;98124.44;4879515;29;947;-74
2023/03/29 07:17:00;;;;;;;;;;;;;;;21.87;22.22;98126.78;4896949;29;1288;-74
2023/03/29 07:19:32;;;;;;;;;;;;;;;22.00;22.13;98127.63;4883344;29;1182;-75
2023/03/29 07:22:07;;;;;;;;;;;;;;;22.27;21.76;98130.16;4898436;29;1505;-74
2023/03/29 07:24:55;;;;;;;;;;;;;;;22.11;21.86;98127.38;4885753;29;1110;-76
2023/03/29 07:27:21;;;;;;;;;;;;;;;21.94;21.90;98128.63;4882612;29;965;-75
2023/03/29 07:29:48;;;;;;;;;;;;;;;21.98;22.12;98123.66;4897741;29;1972;-75
2023/03/29 07:32:16;;;;;;;;;;;;;;;21.63;22.24;98131.03;4882423;29;1277;-72
2023/03/29 07:34:41;;;;;;;;;;;;;;;22.22;21.75;98133.53;4882581;29;987;-74
2023/03/29 07:37:12;;;;;;;;;;;;;;;21.96;21.88;98129.75;4882612;29;1626;-74
2023/03/29 07:39:40;;;;;;;;;;;;;;;21.95;22.08;98135.88;4867473;29;1138;-73
2023/03/29 07:42:31;;;;;;;;;;;;;;;21.93;21.98;98144.03;4878015;29;1336;-74
2023/03/29 07:44:57;;;;;;;;;;;;;;;21.76;22.36;98141.22;4879397;29;1118;-73
2023/03/29 07:47:28;;;;;;;;;;;;;;;21.93;21.83;98138.34;4874306;29;1639;-74
2023/03/29 07:49:54;;;;;;;;;;;;;;;21.87;22.21;98142.97;4928511;29;1972;-74
2023/03/29 07:52:21;;;;;;;;;;;;;;;21.98;21.94;98146.31;4961793;28;1499;-74
2023/03/29 07:54:47;;;;;;;;;;;;;;;22.03;21.76;98142.97;4977648;28;1269;-74
2023/03/29 07:57:23;;;;;;;;;;;;;;;21.74;22.02;98138.00;4938946;29;1232;-74
2023/03/29 07:59:52;;;;;;;;;;;;;;;22.42;21.47;98138.28;4943197;28;1144;-73
2023/03/29 08:02:23;;;;;;;;;;;;;;;22.51;21.18;98133.56;4966004;28;1631;-74
2023/03/29 08:04:52;;;;;;;;;;;;;;;22.40;21.19;98143.63;4949054;28;1555;-74
2023/03/29 08:07:41;;;;;;;;;;;;;;;21.82;22.06;98133.75;4910916;29;1521;-73
2023/03/29 08:10:29;;;;;;;;;;;;;;;21.79;21.82;98145.16;4860388;29;1961;-74
2023/03/29 08:13:07;;;;;;;;;;;;;;;21.74;21.97;98140.84;4845071;29;1167;-73
2023/03/29 08:15:45;;;;;;;;;;;;;;;21.87;21.86;98152.25;4860360;29;1452;-75
2023/03/29 08:18:21;;;;;;;;;;;;;;;21.69;22.12;98144.19;4842149;29;1350;-74
2023/03/29 08:20:47;;;;;;;;;;;;;;;21.54;22.33;98148.63;4842154;29;991;-74
2023/03/29 08:23:12;;;;;;;;;;;;;;;21.71;21.95;98144.56;4857396;29;1127;-75
2023/03/29 08:25:38;;;;;;;;;;;;;;;22.11;21.86;98138.72;4841747;29;1571;-74
2023/03/29 08:28:05;;;;;;;;;;;;;;;22.16;21.46;98140.22;4840633;29;1392;-74
2023/03/29 08:30:41;;;;;;;;;;;;;;;22.42;21.11;98136.25;4857599;29;1904;-75
2023/03/29 08:33:07;;;;;;;;;;;;;;;21.84;21.82;98142.59;4847888;29;1516;-75
2023/03/29 08:35:32;;;;;;;;;;;;;;;21.95;22.06;98141.53;4863021;29;1408;-74
2023/03/29 08:38:09;;;;;;;;;;;;;;;21.76;22.31;98135.53;4869459;29;1795;-75
2023/03/29 08:40:35;;;;;;;;;;;;;;;21.89;21.99;98131.97;4874297;29;1605;-74
2023/03/29 08:43:30;;;;;;;;;;;;;;;22.14;21.46;98132.16;4885420;29;1259;-74
2023/03/29 08:46:15;;;;;;;;;;;;;;;21.90;21.74;98127.91;4877028;29;1171;-75
2023/03/29 08:48:42;;;;;;;;;;;;;;;21.89;21.98;98137.66;4926157;28;1839;-74
2023/03/29 08:51:16;;;;;;;;;;;;;;;22.01;21.73;98134.88;4919759;29;1950;-74
2023/03/29 08:53:45;;;;;;;;;;;;;;;21.77;22.06;98122.97;4898633;29;1507;-74
2023/03/29 08:56:20;;;;;;;;;;;;;;;22.22;21.52;98122.19;4913522;29;1586;-74
2023/03/29 08:59:06;;;;;;;;;;;;;;;22.08;21.94;98128.25;4899786;29;1676;-74
2023/03/29 09:01:33;;;;;;;;;;;;;;;22.04;21.69;98138.88;4898618;29;1810;-74
2023/03/29 09:04:20;;;;;;;;;;;;;;;21.88;22.19;98138.91;4903690;29;1636;-74
2023/03/29 09:07:01;;;;;;;;;;;;;;;21.72;22.21;98146.16;4899780;29;1694;-75
2023/03/29 09:09:33;;;;;;;;;;;;;;;22.09;21.84;98129.84;4894091;29;1944;-74
2023/03/29 09:12:09;;;;;;;;;;;;;;;22.47;21.25;98143.41;4903466;29;1649;-74
2023/03/29 09:14:50;;;;;;;;;;;;;;;21.98;21.75;98147.13;4919039;29;1598;-75
2023/03/29 09:17:22;;;;;;;;;;;;;;;21.93;21.88;98144.81;4905219;29;1426;-75
2023/03/29 09:19:50;;;;;;;;;;;;;;;21.95;21.77;98148.00;4912713;29;1087;-75
2023/03/29 09:22:42;;;;;;;;;;;;;;;22.43;21.26;98160.50;4949088;29;1262;-74
2023/03/29 09:25:12;;;;;;;;;;;;;;;22.18;21.63;98161.22;4935259;29;1084;-74
2023/03/29 09:27:40;;;;;;;;;;;;;;;21.89;22.20;98154.66;4919081;29;1232;-75
2023/03/29 09:30:18;;;;;;;;;;;;;;;21.94;21.79;98162.59;4919302;29;1931;-73
2023/03/29 09:32:52;;;;;;;;;;;;;;;21.89;22.00;98161.09;4903582;29;1212;-75
2023/03/29 09:35:23;;;;;;;;;;;;;;;21.89;22.04;98157.47;4934591;29;1816;-74
2023/03/29 09:37:50;;;;;;;;;;;;;;;22.06;21.87;98157.00;4903548;29;1071;-74
2023/03/29 09:40:17;;;;;;;;;;;;;;;22.05;21.62;98163.13;4903525;29;1602;-73
2023/03/29 09:42:58;;;;;;;;;;;;;;;21.84;21.95;98170.94;4903535;29;1387;-75
2023/03/29 09:45:24;;;;;;;;;;;;;;;21.94;21.78;98163.41;4903544;29;1075;-75
2023/03/29 09:47:57;;;;;;;;;;;;;;;21.83;22.06;98155.19;4884302;29;1210;-74
2023/03/29 09:50:25;;;;;;;;;;;;;;;21.92;22.06;98153.78;4859620;29;1911;-74
2023/03/29 09:52:51;;;;;;;;;;;;;;;22.06;21.83;98147.72;4859452;29;1118;-74
2023/03/29 09:55:21;;;;;;;;;;;;;;;22.02;21.73;98153.50;4840731;29;1084;-73
2023/03/29 09:58:00;;;;;;;;;;;;;;;21.78;22.07;98144.38;4839466;29;1294;-73
2023/03/29 10:00:29;;;;;;;;;;;;;;;21.93;21.71;98149.69;4844040;29;1382;-74
2023/03/29 10:02:56;;;;;;;;;;;;;;;21.72;21.85;98146.16;4844299;29;1187;-75
2023/03/29 10:05:31;;;;;;;;;;;;;;;22.03;21.71;98149.41;4828445;29;1317;-74
2023/03/29 10:07:59;;;;;;;;;;;;;;;21.94;21.64;98151.28;4843863;29;1390;-74
2023/03/29 10:10:28;;;;;;;;;;;;;;;21.72;21.90;98153.84;4828714;29;1915;-74
2023/03/29 10:12:55;;;;;;;;;;;;;;;21.66;21.85;98147.94;4843867;29;1743;-74
2023/03/29 10:15:21;;;;;;;;;;;;;;;21.70;22.15;98148.63;4845330;29;2092;-74
2023/03/29 10:17:46;;;;;;;;;;;;;;;21.83;21.81;98145.88;4846809;29;956;-74
2023/03/29 10:20:13;;;;;;;;;;;;;;;21.96;21.51;98149.56;4846983;29;1444;-74
2023/03/29 10:22:44;;;;;;;;;;;;;;;22.11;21.24;98144.38;4831765;29;1179;-75
2023/03/29 10:25:13;;;;;;;;;;;;;;;21.69;21.83;98152.69;4847413;29;908;-74
2023/03/29 10:27:39;;;;;;;;;;;;;;;21.89;21.74;98144.09;4877417;29;946;-74
2023/03/29 10:30:10;;;;;;;;;;;;;;;21.72;21.89;98149.00;4932908;29;1977;-75
2023/03/29 10:32:36;;;;;;;;;;;;;;;22.12;21.41;98140.28;4926755;29;1231;-75
2023/03/29 10:35:09;;;;;;;;;;;;;;;22.04;21.50;98161.53;4921581;29;987;-75
2023/03/29 10:37:38;;;;;;;;;;;;;;;21.81;21.89;98149.16;4921837;29;1583;-75
2023/03/29 10:40:05;;;;;;;;;;;;;;;21.80;21.67;98144.72;4937412;29;1096;-75
2023/03/29 10:42:31;;;;;;;;;;;;;;;21.71;21.65;98138.91;4937467;29;988;-75
2023/03/29 10:44:57;;;;;;;;;;;;;;;21.81;21.65;98143.50;4939124;29;1257;-75
2023/03/29 10:47:22;;;;;;;;;;;;;;;22.10;21.32;98137.09;4941821;28;1238;-75
2023/03/29 10:49:52;;;;;;;;;;;;;;;22.04;21.35;98136.03;4959541;28;1899;-75
2023/03/29 10:52:18;;;;;;;;;;;;;;;21.88;21.70;98128.34;4959505;28;1076;-76
2023/03/29 10:54:43;;;;;;;;;;;;;;;21.65;21.91;98129.31;4943372;28;1267;-75
2023/03/29 10:57:14;;;;;;;;;;;;;;;21.66;21.86;98119.63;4943209;28;1081;-75
2023/03/29 10:59:52;;;;;;;;;;;;;;;22.14;21.12;98135.00;4943405;28;1029;-75
2023/03/29 11:02:23;;;;;;;;;;;;;;;22.05;21.25;98143.28;4968698;28;1606;-75
2023/03/29 11:04:55;;;;;;;;;;;;;;;21.91;21.41;98135.16;5030874;28;1607;-75
2023/03/29 11:07:27;;;;;;;;;;;;;;;21.94;21.49;98128.63;5004212;28;1003;-75
2023/03/29 11:09:59;;;;;;;;;;;;;;;21.68;21.50;98124.81;5016463;28;1903;-75
2023/03/29 11:12:30;;;;;;;;;;;;;;;21.95;21.17;98116.03;5016142;28;978;-75
2023/03/29 11:15:18;;;;;;;;;;;;;;;22.24;21.13;98114.06;5007371;28;1463;-76
2023/03/29 11:17:49;;;;;;;;;;;;;;;22.10;21.18;98120.91;4977580;28;1680;-75
2023/03/29 11:20:15;;;;;;;;;;;;;;;22.01;21.44;98122.75;4988531;28;2004;-75
2023/03/29 11:22:48;;;;;;;;;;;;;;;21.83;21.52;98121.19;5004538;28;1570;-75
2023/03/29 11:25:32;;;;;;;;;;;;;;;21.78;21.41;98118.88;5010127;28;1550;-75
2023/03/29 11:28:13;;;;;;;;;;;;;;;22.01;21.31;98111.41;5006586;28;1485;-75
2023/03/29 11:30:58;;;;;;;;;;;;;;;22.19;20.93;98116.66;4990606;28;1981;-75
2023/03/29 11:33:32;;;;;;;;;;;;;;;21.84;21.31;98125.59;5022456;28;1496;-75
2023/03/29 11:36:04;;;;;;;;;;;;;;;21.84;21.24;98114.28;4999729;28;1619;-75
2023/03/29 11:38:52;;;;;;;;;;;;;;;21.64;21.26;98112.78;4990661;28;1546;-76
2023/03/29 11:41:20;;;;;;;;;;;;;;;21.98;20.98;98113.13;4935219;29;1478;-76
2023/03/29 11:43:48;;;;;;;;;;;;;;;22.38;20.32;98114.91;4911789;29;1554;-75
2023/03/29 11:46:13;;;;;;;;;;;;;;;22.38;20.47;98117.75;4919120;29;1574;-76
2023/03/29 11:48:47;;;;;;;;;;;;;;;21.99;20.97;98113.91;4935656;29;1587;-74
2023/03/29 11:51:18;;;;;;;;;;;;;;;21.79;21.04;98106.31;4919505;29;1927;-74
2023/03/29 11:54:01;;;;;;;;;;;;;;;21.71;21.32;98098.44;4941762;29;1610;-74
2023/03/29 11:56:34;;;;;;;;;;;;;;;22.42;20.37;98102.22;4904268;29;1520;-75
2023/03/29 11:59:03;;;;;;;;;;;;;;;22.11;20.45;98116.03;4911890;29;1576;-74
2023/03/29 12:01:30;;;;;;;;;;;;;;;22.04;20.66;98121.88;4919813;29;1624;-74
2023/03/29 12:03:56;;;;;;;;;;;;;;;21.92;20.76;98111.28;4911525;29;1568;-74
2023/03/29 12:06:22;;;;;;;;;;;;;;;21.95;20.73;98116.03;4922076;29;1594;-74
2023/03/29 12:09:01;;;;;;;;;;;;;;;21.93;21.00;98121.38;4939087;29;1581;-75
2023/03/29 12:11:32;;;;;;;;;;;;;;;22.00;20.81;98104.16;4937108;29;1634;-74
2023/03/29 12:13:58;;;;;;;;;;;;;;;22.17;20.57;98134.09;4938818;28;1712;-74
2023/03/29 12:16:29;;;;;;;;;;;;;;;21.83;21.22;98146.69;4942703;29;1358;-74
2023/03/29 12:18:56;;;;;;;;;;;;;;;21.76;21.11;98151.72;4957013;28;1067;-75
2023/03/29 12:21:22;;;;;;;;;;;;;;;21.92;21.03;98145.28;4992136;28;1984;-74
2023/03/29 12:23:50;;;;;;;;;;;;;;;22.26;20.81;98133.44;5002127;28;1594;-74
2023/03/29 12:26:35;;;;;;;;;;;;;;;22.16;20.81;98141.00;5012108;28;1550;-74
2023/03/29 12:29:16;;;;;;;;;;;;;;;21.87;20.99;98146.59;5029492;28;1981;-75
2023/03/29 12:31:45;;;;;;;;;;;;;;;21.82;21.08;98150.75;5012955;28;1618;-74
2023/03/29 12:34:19;;;;;;;;;;;;;;;21.62;21.59;98167.03;5031206;28;1581;-75
2023/03/29 12:37:10;;;;;;;;;;;;;;;21.92;21.43;98160.22;5009439;28;1571;-74
2023/03/29 12:40:14;;;;;;;;;;;;;;;21.99;21.00;98179.88;5011691;28;1615;-75
2023/03/29 12:43:06;;;;;;;;;;;;;;;21.66;21.44;98181.09;5009415;28;1653;-75
2023/03/29 12:46:27;;;;;;;;;;;;;;;21.68;21.67;98190.75;4956548;28;1682;-75
2023/03/29 12:48:54;;;;;;;;;;;;;;;21.57;21.85;98201.53;4919089;29;1339;-75
2023/03/29 12:51:21;;;;;;;;;;;;;;;21.78;21.75;98206.69;4888083;29;1911;-75
2023/03/29 12:53:53;;;;;;;;;;;;;;;21.97;21.56;98204.22;4888164;29;2274;-74
2023/03/29 12:56:20;;;;;;;;;;;;;;;21.70;21.58;98216.59;4885469;29;1155;-75
2023/03/29 12:58:50;;;;;;;;;;;;;;;21.74;21.78;98222.16;4910120;29;1519;-75
2023/03/29 13:01:25;;;;;;;;;;;;;;;21.52;21.89;98217.00;4903749;29;1350;-74
2023/03/29 13:03:54;;;;;;;;;;;;;;;21.99;21.57;98215.91;4887724;29;1419;-74
2023/03/29 13:06:28;;;;;;;;;;;;;;;21.92;21.59;98216.09;4903899;29;1196;-74
2023/03/29 13:08:57;;;;;;;;;;;;;;;21.81;21.70;98216.31;4904000;29;1084;-74
2023/03/29 13:11:24;;;;;;;;;;;;;;;21.71;21.76;98214.53;4904154;29;983;-74
2023/03/29 13:13:49;;;;;;;;;;;;;;;21.64;21.84;98207.03;4904010;29;1017;-74
2023/03/29 13:16:16;;;;;;;;;;;;;;;21.99;21.54;98213.06;4903671;29;1205;-74
2023/03/29 13:18:51;;;;;;;;;;;;;;;22.07;21.39;98203.13;4903926;29;1048;-74
2023/03/29 13:21:22;;;;;;;;;;;;;;;22.08;21.60;98202.72;4929567;29;1049;-75